sensor_id;sensor_type;location;lat;lon;timestamp;temperature;humidity
15749;DHT22;7976;52.526;13.326;2023-04-19T00:00:15;7.10;99.90
15749;DHT22;7976;52.526;13.326;2023-04-19T00:02:42;7.10;99.90
15749;DHT22;7976;52.526;13.326;2023-04-19T00:05:09;7.20;99.90
15749;DHT22;7976;52.526;13.326;2023-04-19T00:07:39;7.20;99.90
15749;DHT22;7976;52.526;13.326;2023-04-19T00:10:07;7.20;99.90
15749;DHT22;7976;52.526;13.326;2023-04-19T00:12:34;7.20;99.90
15749;DHT22;7976;52.526;13.326;2023-04-19T00:15:01;7.30;99.90
15749;DHT22;7976;52.526;13.326;2023-04-19T00:17:28;7.30;99.90
15749;DHT22;7976;52.526;13.326;2023-04-19T00:19:56;7.30;99.90
15749;DHT22;7976;52.526;13.326;2023-04-19T00:22:23;7.30;99.90
15749;DHT22;7976;52.526;13.326;2023-04-19T00:24:52;7.30;99.90
15749;DHT22;7976;52.526;13.326;2023-04-19T00:27:18;7.30;99.90
15749;DHT22;7976;52.526;13.326;2023-04-19T00:29:45;7.30;99.90
15749;DHT22;7976;52.526;13.326;2023-04-19T00:32:12;7.30;99.90
15749;DHT22;7976;52.526;13.326;2023-04-19T00:34:41;7.30;99.90
15749;DHT22;7976;52.526;13.326;2023-04-19T00:37:08;7.30;99.90
15749;DHT22;7976;52.526;13.326;2023-04-19T00:39:35;7.30;99.90
15749;DHT22;7976;52.526;13.326;2023-04-19T00:42:05;7.30;99.90
15749;DHT22;7976;52.526;13.326;2023-04-19T00:44:32;7.20;99.90
15749;DHT22;7976;52.526;13.326;2023-04-19T00:46:59;7.30;99.90
15749;DHT22;7976;52.526;13.326;2023-04-19T00:49:26;7.30;99.90
15749;DHT22;7976;52.526;13.326;2023-04-19T00:51:53;7.20;99.90
15749;DHT22;7976;52.526;13.326;2023-04-19T00:54:20;7.30;99.90
15749;DHT22;7976;52.526;13.326;2023-04-19T00:56:49;7.20;99.90
15749;DHT22;7976;52.526;13.326;2023-04-19T00:59:18;7.20;99.90
15749;DHT22;7976;52.526;13.326;2023-04-19T01:01:45;7.20;99.90
15749;DHT22;7976;52.526;13.326;2023-04-19T01:04:11;7.20;99.90
15749;DHT22;7976;52.526;13.326;2023-04-19T01:06:39;7.20;99.90
15749;DHT22;7976;52.526;13.326;2023-04-19T01:09:09;7.10;99.90
15749;DHT22;7976;52.526;13.326;2023-04-19T01:11:39;7.00;99.90
15749;DHT22;7976;52.526;13.326;2023-04-19T01:14:06;7.00;99.90
15749;DHT22;7976;52.526;13.326;2023-04-19T01:16:34;7.00;99.90
15749;DHT22;7976;52.526;13.326;2023-04-19T01:19:01;6.90;99.90
15749;DHT22;7976;52.526;13.326;2023-04-19T01:21:28;6.90;99.90
15749;DHT22;7976;52.526;13.326;2023-04-19T01:23:58;6.90;99.90
15749;DHT22;7976;52.526;13.326;2023-04-19T01:26:25;6.90;99.90
15749;DHT22;7976;52.526;13.326;2023-04-19T01:28:53;6.80;99.90
15749;DHT22;7976;52.526;13.326;2023-04-19T01:31:20;6.80;99.90
15749;DHT22;7976;52.526;13.326;2023-04-19T01:33:46;6.70;99.90
15749;DHT22;7976;52.526;13.326;2023-04-19T01:36:13;6.70;99.90
15749;DHT22;7976;52.526;13.326;2023-04-19T01:38:40;6.70;99.90
15749;DHT22;7976;52.526;13.326;2023-04-19T01:41:09;6.60;99.90
15749;DHT22;7976;52.526;13.326;2023-04-19T01:43:36;6.60;99.90
15749;DHT22;7976;52.526;13.326;2023-04-19T01:46:03;6.60;99.90
15749;DHT22;7976;52.526;13.326;2023-04-19T01:48:30;6.50;99.90
15749;DHT22;7976;52.526;13.326;2023-04-19T01:50:58;6.60;99.90
15749;DHT22;7976;52.526;13.326;2023-04-19T01:53:25;6.50;99.90
15749;DHT22;7976;52.526;13.326;2023-04-19T01:55:52;6.50;99.90
15749;DHT22;7976;52.526;13.326;2023-04-19T01:58:20;6.50;99.90
15749;DHT22;7976;52.526;13.326;2023-04-19T02:00:47;6.50;99.90
15749;DHT22;7976;52.526;13.326;2023-04-19T02:03:14;6.50;99.90
15749;DHT22;7976;52.526;13.326;2023-04-19T02:05:41;6.40;99.90
15749;DHT22;7976;52.526;13.326;2023-04-19T02:08:08;6.40;99.90
15749;DHT22;7976;52.526;13.326;2023-04-19T02:10:35;6.40;99.90
15749;DHT22;7976;52.526;13.326;2023-04-19T02:13:01;6.40;99.90
15749;DHT22;7976;52.526;13.326;2023-04-19T02:15:29;6.30;99.90
15749;DHT22;7976;52.526;13.326;2023-04-19T02:17:56;6.30;99.90
15749;DHT22;7976;52.526;13.326;2023-04-19T02:20:24;6.30;99.90
15749;DHT22;7976;52.526;13.326;2023-04-19T02:22:51;6.30;99.90
15749;DHT22;7976;52.526;13.326;2023-04-19T02:25:18;6.30;99.90
15749;DHT22;7976;52.526;13.326;2023-04-19T02:27:45;6.30;99.90
15749;DHT22;7976;52.526;13.326;2023-04-19T02:30:12;6.20;99.90
15749;DHT22;7976;52.526;13.326;2023-04-19T02:32:40;6.20;99.90
15749;DHT22;7976;52.526;13.326;2023-04-19T02:35:08;6.20;99.90
15749;DHT22;7976;52.526;13.326;2023-04-19T02:37:34;6.20;99.90
15749;DHT22;7976;52.526;13.326;2023-04-19T02:40:01;6.20;99.90
15749;DHT22;7976;52.526;13.326;2023-04-19T02:42:29;6.10;99.90
15749;DHT22;7976;52.526;13.326;2023-04-19T02:44:56;6.10;99.90
15749;DHT22;7976;52.526;13.326;2023-04-19T02:47:23;6.10;99.90
15749;DHT22;7976;52.526;13.326;2023-04-19T02:49:51;6.10;99.90
15749;DHT22;7976;52.526;13.326;2023-04-19T02:52:18;6.10;99.90
15749;DHT22;7976;52.526;13.326;2023-04-19T02:54:45;6.00;99.90
15749;DHT22;7976;52.526;13.326;2023-04-19T02:57:12;6.00;99.90
15749;DHT22;7976;52.526;13.326;2023-04-19T02:59:41;6.00;99.90
15749;DHT22;7976;52.526;13.326;2023-04-19T03:02:08;6.00;99.90
15749;DHT22;7976;52.526;13.326;2023-04-19T03:04:35;6.00;99.90
15749;DHT22;7976;52.526;13.326;2023-04-19T03:07:03;5.90;99.90
15749;DHT22;7976;52.526;13.326;2023-04-19T03:09:30;5.90;99.90
15749;DHT22;7976;52.526;13.326;2023-04-19T03:11:57;5.90;99.90
15749;DHT22;7976;52.526;13.326;2023-04-19T03:14:24;5.80;99.90
15749;DHT22;7976;52.526;13.326;2023-04-19T03:16:51;5.80;99.90
15749;DHT22;7976;52.526;13.326;2023-04-19T03:19:18;5.80;99.90
15749;DHT22;7976;52.526;13.326;2023-04-19T03:21:49;5.70;99.90
15749;DHT22;7976;52.526;13.326;2023-04-19T03:24:18;5.70;99.90
15749;DHT22;7976;52.526;13.326;2023-04-19T03:26:49;5.70;99.90
15749;DHT22;7976;52.526;13.326;2023-04-19T03:29:21;5.70;99.90
15749;DHT22;7976;52.526;13.326;2023-04-19T03:31:54;5.60;99.90
15749;DHT22;7976;52.526;13.326;2023-04-19T03:34:20;5.60;99.90
15749;DHT22;7976;52.526;13.326;2023-04-19T03:36:48;5.60;99.90
15749;DHT22;7976;52.526;13.326;2023-04-19T03:39:15;5.60;99.90
15749;DHT22;7976;52.526;13.326;2023-04-19T03:41:46;5.60;99.90
15749;DHT22;7976;52.526;13.326;2023-04-19T03:44:19;5.60;99.90
15749;DHT22;7976;52.526;13.326;2023-04-19T03:46:46;5.60;99.90
15749;DHT22;7976;52.526;13.326;2023-04-19T03:49:16;5.50;99.90
15749;DHT22;7976;52.526;13.326;2023-04-19T03:51:47;5.40;99.90
15749;DHT22;7976;52.526;13.326;2023-04-19T03:54:14;5.40;99.90
15749;DHT22;7976;52.526;13.326;2023-04-19T03:56:41;5.30;99.90
15749;DHT22;7976;52.526;13.326;2023-04-19T03:59:10;5.30;99.90
15749;DHT22;7976;52.526;13.326;2023-04-19T04:01:38;5.30;99.90
15749;DHT22;7976;52.526;13.326;2023-04-19T04:04:06;5.30;99.90
15749;DHT22;7976;52.526;13.326;2023-04-19T04:06:34;5.20;99.90
15749;DHT22;7976;52.526;13.326;2023-04-19T04:09:01;5.30;99.90
15749;DHT22;7976;52.526;13.326;2023-04-19T04:11:29;5.30;99.90
15749;DHT22;7976;52.526;13.326;2023-04-19T04:13:56;5.20;99.90
15749;DHT22;7976;52.526;13.326;2023-04-19T04:16:28;5.30;99.90
15749;DHT22;7976;52.526;13.326;2023-04-19T04:18:55;5.20;99.90
15749;DHT22;7976;52.526;13.326;2023-04-19T04:21:24;5.20;99.90
15749;DHT22;7976;52.526;13.326;2023-04-19T04:23:51;5.20;99.90
15749;DHT22;7976;52.526;13.326;2023-04-19T04:26:27;5.20;99.90
15749;DHT22;7976;52.526;13.326;2023-04-19T04:29:10;5.10;99.90
15749;DHT22;7976;52.526;13.326;2023-04-19T04:31:40;5.20;99.90
15749;DHT22;7976;52.526;13.326;2023-04-19T04:34:07;5.20;99.90
15749;DHT22;7976;52.526;13.326;2023-04-19T04:36:37;5.20;99.90
15749;DHT22;7976;52.526;13.326;2023-04-19T04:39:06;5.20;99.90
15749;DHT22;7976;52.526;13.326;2023-04-19T04:41:36;5.20;99.90
15749;DHT22;7976;52.526;13.326;2023-04-19T04:44:06;5.20;99.90
15749;DHT22;7976;52.526;13.326;2023-04-19T04:46:34;5.20;99.90
15749;DHT22;7976;52.526;13.326;2023-04-19T04:49:03;5.20;99.90
15749;DHT22;7976;52.526;13.326;2023-04-19T04:51:29;5.20;99.90
15749;DHT22;7976;52.526;13.326;2023-04-19T04:53:58;5.30;99.90
15749;DHT22;7976;52.526;13.326;2023-04-19T04:56:25;5.20;99.90
15749;DHT22;7976;52.526;13.326;2023-04-19T04:58:52;5.30;99.90
15749;DHT22;7976;52.526;13.326;2023-04-19T05:01:26;5.20;99.90
15749;DHT22;7976;52.526;13.326;2023-04-19T05:03:53;5.20;99.90
15749;DHT22;7976;52.526;13.326;2023-04-19T05:06:21;5.20;99.90
15749;DHT22;7976;52.526;13.326;2023-04-19T05:08:48;5.30;99.90
15749;DHT22;7976;52.526;13.326;2023-04-19T05:11:20;5.30;99.90
15749;DHT22;7976;52.526;13.326;2023-04-19T05:13:47;5.30;99.90
15749;DHT22;7976;52.526;13.326;2023-04-19T05:16:14;5.40;99.90
15749;DHT22;7976;52.526;13.326;2023-04-19T05:18:44;5.40;99.90
15749;DHT22;7976;52.526;13.326;2023-04-19T05:21:10;5.40;99.90
15749;DHT22;7976;52.526;13.326;2023-04-19T05:23:39;5.40;99.90
15749;DHT22;7976;52.526;13.326;2023-04-19T05:26:07;5.40;99.90
15749;DHT22;7976;52.526;13.326;2023-04-19T05:28:37;5.40;99.90
15749;DHT22;7976;52.526;13.326;2023-04-19T05:31:09;5.50;99.90
15749;DHT22;7976;52.526;13.326;2023-04-19T05:33:54;5.50;99.90
15749;DHT22;7976;52.526;13.326;2023-04-19T05:36:21;5.50;99.90
15749;DHT22;7976;52.526;13.326;2023-04-19T05:38:52;5.60;99.90
15749;DHT22;7976;52.526;13.326;2023-04-19T05:41:19;5.60;99.90
15749;DHT22;7976;52.526;13.326;2023-04-19T05:43:46;5.70;99.90
15749;DHT22;7976;52.526;13.326;2023-04-19T05:46:13;5.70;99.90
15749;DHT22;7976;52.526;13.326;2023-04-19T05:48:40;5.70;99.90
15749;DHT22;7976;52.526;13.326;2023-04-19T05:51:25;5.80;99.90
15749;DHT22;7976;52.526;13.326;2023-04-19T05:54:13;5.80;99.90
15749;DHT22;7976;52.526;13.326;2023-04-19T05:56:44;5.90;99.90
15749;DHT22;7976;52.526;13.326;2023-04-19T05:59:11;5.90;99.90
15749;DHT22;7976;52.526;13.326;2023-04-19T06:01:39;6.00;99.90
15749;DHT22;7976;52.526;13.326;2023-04-19T06:04:06;6.00;99.90
15749;DHT22;7976;52.526;13.326;2023-04-19T06:06:33;6.00;99.90
15749;DHT22;7976;52.526;13.326;2023-04-19T06:08:59;6.10;99.90
15749;DHT22;7976;52.526;13.326;2023-04-19T06:11:29;6.10;99.90
15749;DHT22;7976;52.526;13.326;2023-04-19T06:13:55;6.20;99.90
15749;DHT22;7976;52.526;13.326;2023-04-19T06:16:23;6.30;99.90
15749;DHT22;7976;52.526;13.326;2023-04-19T06:18:49;6.30;99.90
15749;DHT22;7976;52.526;13.326;2023-04-19T06:21:16;6.40;99.90
15749;DHT22;7976;52.526;13.326;2023-04-19T06:23:43;6.40;99.90
15749;DHT22;7976;52.526;13.326;2023-04-19T06:26:09;6.50;99.90
15749;DHT22;7976;52.526;13.326;2023-04-19T06:28:38;6.60;99.90
15749;DHT22;7976;52.526;13.326;2023-04-19T06:31:04;6.60;99.90
15749;DHT22;7976;52.526;13.326;2023-04-19T06:33:31;6.70;99.90
15749;DHT22;7976;52.526;13.326;2023-04-19T06:35:58;6.80;99.90
15749;DHT22;7976;52.526;13.326;2023-04-19T06:38:25;6.80;99.90
15749;DHT22;7976;52.526;13.326;2023-04-19T06:40:52;6.90;99.90
15749;DHT22;7976;52.526;13.326;2023-04-19T06:43:18;7.00;99.90
15749;DHT22;7976;52.526;13.326;2023-04-19T06:45:47;7.10;99.90
15749;DHT22;7976;52.526;13.326;2023-04-19T06:48:14;7.30;99.90
15749;DHT22;7976;52.526;13.326;2023-04-19T06:50:40;7.40;99.90
15749;DHT22;7976;52.526;13.326;2023-04-19T06:53:07;7.50;99.90
15749;DHT22;7976;52.526;13.326;2023-04-19T06:55:34;7.50;99.90
15749;DHT22;7976;52.526;13.326;2023-04-19T06:58:01;7.70;99.90
15749;DHT22;7976;52.526;13.326;2023-04-19T07:00:28;7.80;99.90
15749;DHT22;7976;52.526;13.326;2023-04-19T07:02:56;7.80;99.90
15749;DHT22;7976;52.526;13.326;2023-04-19T07:05:24;7.90;99.90
15749;DHT22;7976;52.526;13.326;2023-04-19T07:07:51;8.00;99.90
15749;DHT22;7976;52.526;13.326;2023-04-19T07:10:17;8.20;99.90
15749;DHT22;7976;52.526;13.326;2023-04-19T07:12:44;8.30;99.90
15749;DHT22;7976;52.526;13.326;2023-04-19T07:15:11;8.40;99.90
15749;DHT22;7976;52.526;13.326;2023-04-19T07:17:38;8.50;99.90
15749;DHT22;7976;52.526;13.326;2023-04-19T07:20:07;8.60;99.90
15749;DHT22;7976;52.526;13.326;2023-04-19T07:22:34;8.70;99.90
15749;DHT22;7976;52.526;13.326;2023-04-19T07:25:01;8.80;99.90
15749;DHT22;7976;52.526;13.326;2023-04-19T07:27:28;8.90;99.90
15749;DHT22;7976;52.526;13.326;2023-04-19T07:29:55;9.10;99.90
15749;DHT22;7976;52.526;13.326;2023-04-19T07:32:22;9.10;99.90
15749;DHT22;7976;52.526;13.326;2023-04-19T07:34:49;9.30;99.90
15749;DHT22;7976;52.526;13.326;2023-04-19T07:37:18;9.40;99.90
15749;DHT22;7976;52.526;13.326;2023-04-19T07:39:45;9.50;99.90
15749;DHT22;7976;52.526;13.326;2023-04-19T07:42:11;9.60;99.90
15749;DHT22;7976;52.526;13.326;2023-04-19T07:44:38;9.70;99.90
15749;DHT22;7976;52.526;13.326;2023-04-19T07:47:05;9.70;99.90
15749;DHT22;7976;52.526;13.326;2023-04-19T07:49:32;9.80;99.90
15749;DHT22;7976;52.526;13.326;2023-04-19T07:52:00;9.90;99.90
15749;DHT22;7976;52.526;13.326;2023-04-19T07:54:28;10.00;99.90
15749;DHT22;7976;52.526;13.326;2023-04-19T07:56:56;10.10;99.90
15749;DHT22;7976;52.526;13.326;2023-04-19T07:59:23;10.20;99.90
15749;DHT22;7976;52.526;13.326;2023-04-19T08:01:50;10.20;99.90
15749;DHT22;7976;52.526;13.326;2023-04-19T08:04:17;10.30;99.90
15749;DHT22;7976;52.526;13.326;2023-04-19T08:06:44;10.40;99.90
15749;DHT22;7976;52.526;13.326;2023-04-19T08:09:11;10.40;99.90
15749;DHT22;7976;52.526;13.326;2023-04-19T08:11:39;10.50;99.90
15749;DHT22;7976;52.526;13.326;2023-04-19T08:14:07;10.50;99.90
15749;DHT22;7976;52.526;13.326;2023-04-19T08:16:34;10.50;99.90
15749;DHT22;7976;52.526;13.326;2023-04-19T08:19:01;10.60;99.90
15749;DHT22;7976;52.526;13.326;2023-04-19T08:21:32;10.60;99.90
15749;DHT22;7976;52.526;13.326;2023-04-19T08:24:05;10.70;99.90
15749;DHT22;7976;52.526;13.326;2023-04-19T08:26:32;10.80;99.90
15749;DHT22;7976;52.526;13.326;2023-04-19T08:29:00;10.80;99.90
15749;DHT22;7976;52.526;13.326;2023-04-19T08:31:27;10.90;99.90
15749;DHT22;7976;52.526;13.326;2023-04-19T08:33:55;10.90;99.90
15749;DHT22;7976;52.526;13.326;2023-04-19T08:36:24;10.90;99.90
15749;DHT22;7976;52.526;13.326;2023-04-19T08:38:52;11.10;99.90
15749;DHT22;7976;52.526;13.326;2023-04-19T08:41:19;11.20;99.90
15749;DHT22;7976;52.526;13.326;2023-04-19T08:43:50;11.20;99.90
15749;DHT22;7976;52.526;13.326;2023-04-19T08:46:20;11.30;99.90
15749;DHT22;7976;52.526;13.326;2023-04-19T08:48:49;11.20;99.90
15749;DHT22;7976;52.526;13.326;2023-04-19T08:51:18;11.20;99.90
15749;DHT22;7976;52.526;13.326;2023-04-19T08:53:45;11.10;99.90
15749;DHT22;7976;52.526;13.326;2023-04-19T08:56:14;11.10;99.90
15749;DHT22;7976;52.526;13.326;2023-04-19T08:58:40;11.10;99.90
15749;DHT22;7976;52.526;13.326;2023-04-19T09:01:07;11.10;99.90
15749;DHT22;7976;52.526;13.326;2023-04-19T09:03:42;11.20;99.90
15749;DHT22;7976;52.526;13.326;2023-04-19T09:06:10;11.20;99.90
15749;DHT22;7976;52.526;13.326;2023-04-19T09:08:38;11.30;99.90
15749;DHT22;7976;52.526;13.326;2023-04-19T09:11:06;11.40;99.90
15749;DHT22;7976;52.526;13.326;2023-04-19T09:13:33;11.40;99.90
15749;DHT22;7976;52.526;13.326;2023-04-19T09:16:03;11.50;99.90
15749;DHT22;7976;52.526;13.326;2023-04-19T09:18:32;11.50;99.90
15749;DHT22;7976;52.526;13.326;2023-04-19T09:21:01;11.60;99.90
15749;DHT22;7976;52.526;13.326;2023-04-19T09:23:27;11.70;99.90
15749;DHT22;7976;52.526;13.326;2023-04-19T09:25:56;11.70;99.90
15749;DHT22;7976;52.526;13.326;2023-04-19T09:28:25;11.80;99.90
15749;DHT22;7976;52.526;13.326;2023-04-19T09:30:52;11.90;99.90
15749;DHT22;7976;52.526;13.326;2023-04-19T09:33:31;12.00;99.90
15749;DHT22;7976;52.526;13.326;2023-04-19T09:36:01;12.10;99.90
15749;DHT22;7976;52.526;13.326;2023-04-19T09:38:28;12.20;99.90
15749;DHT22;7976;52.526;13.326;2023-04-19T09:41:05;12.30;99.90
15749;DHT22;7976;52.526;13.326;2023-04-19T09:43:33;12.30;99.90
15749;DHT22;7976;52.526;13.326;2023-04-19T09:46:00;12.30;99.90
15749;DHT22;7976;52.526;13.326;2023-04-19T09:48:27;12.30;99.90
15749;DHT22;7976;52.526;13.326;2023-04-19T09:50:55;12.40;99.90
15749;DHT22;7976;52.526;13.326;2023-04-19T09:53:26;12.50;99.90
15749;DHT22;7976;52.526;13.326;2023-04-19T09:55:54;12.60;99.90
15749;DHT22;7976;52.526;13.326;2023-04-19T09:58:21;12.70;99.90
15749;DHT22;7976;52.526;13.326;2023-04-19T10:00:48;12.70;99.90
15749;DHT22;7976;52.526;13.326;2023-04-19T10:03:17;12.60;99.90
15749;DHT22;7976;52.526;13.326;2023-04-19T10:05:46;12.60;99.90
15749;DHT22;7976;52.526;13.326;2023-04-19T10:08:16;12.60;99.90
15749;DHT22;7976;52.526;13.326;2023-04-19T10:10:54;12.60;99.90
15749;DHT22;7976;52.526;13.326;2023-04-19T10:13:22;12.70;99.90
15749;DHT22;7976;52.526;13.326;2023-04-19T10:15:50;12.80;99.90
15749;DHT22;7976;52.526;13.326;2023-04-19T10:18:17;13.00;99.90
15749;DHT22;7976;52.526;13.326;2023-04-19T10:20:50;13.20;99.90
15749;DHT22;7976;52.526;13.326;2023-04-19T10:23:22;13.40;99.90
15749;DHT22;7976;52.526;13.326;2023-04-19T10:25:56;13.50;99.90
15749;DHT22;7976;52.526;13.326;2023-04-19T10:28:24;13.50;99.90
15749;DHT22;7976;52.526;13.326;2023-04-19T10:30:54;13.50;99.90
15749;DHT22;7976;52.526;13.326;2023-04-19T10:33:25;13.50;99.90
15749;DHT22;7976;52.526;13.326;2023-04-19T10:35:55;13.50;99.90
15749;DHT22;7976;52.526;13.326;2023-04-19T10:38:35;13.50;99.90
15749;DHT22;7976;52.526;13.326;2023-04-19T10:41:06;13.40;99.90
15749;DHT22;7976;52.526;13.326;2023-04-19T10:43:39;13.30;99.90
15749;DHT22;7976;52.526;13.326;2023-04-19T10:46:08;13.10;99.90
15749;DHT22;7976;52.526;13.326;2023-04-19T10:48:50;12.90;99.90
15749;DHT22;7976;52.526;13.326;2023-04-19T10:51:21;12.80;99.90
15749;DHT22;7976;52.526;13.326;2023-04-19T10:53:54;12.80;99.90
15749;DHT22;7976;52.526;13.326;2023-04-19T10:56:57;12.70;99.90
15749;DHT22;7976;52.526;13.326;2023-04-19T10:59:29;12.80;99.90
15749;DHT22;7976;52.526;13.326;2023-04-19T11:01:57;12.80;99.90
15749;DHT22;7976;52.526;13.326;2023-04-19T11:04:57;12.90;99.90
15749;DHT22;7976;52.526;13.326;2023-04-19T11:07:36;13.10;99.90
15749;DHT22;7976;52.526;13.326;2023-04-19T11:10:05;13.20;99.90
15749;DHT22;7976;52.526;13.326;2023-04-19T11:12:34;13.40;99.90
15749;DHT22;7976;52.526;13.326;2023-04-19T11:15:02;13.50;99.90
15749;DHT22;7976;52.526;13.326;2023-04-19T11:17:33;13.60;99.90
15749;DHT22;7976;52.526;13.326;2023-04-19T11:20:04;13.70;99.90
15749;DHT22;7976;52.526;13.326;2023-04-19T11:22:33;13.70;99.90
15749;DHT22;7976;52.526;13.326;2023-04-19T11:25:05;13.60;99.90
15749;DHT22;7976;52.526;13.326;2023-04-19T11:27:38;13.40;99.90
15749;DHT22;7976;52.526;13.326;2023-04-19T11:30:08;13.30;99.90
15749;DHT22;7976;52.526;13.326;2023-04-19T11:32:37;13.30;99.90
15749;DHT22;7976;52.526;13.326;2023-04-19T11:35:10;13.10;99.90
15749;DHT22;7976;52.526;13.326;2023-04-19T11:37:38;12.90;99.90
15749;DHT22;7976;52.526;13.326;2023-04-19T11:40:06;12.80;99.90
15749;DHT22;7976;52.526;13.326;2023-04-19T11:42:34;12.70;99.90
15749;DHT22;7976;52.526;13.326;2023-04-19T11:45:04;12.70;99.90
15749;DHT22;7976;52.526;13.326;2023-04-19T11:47:31;12.90;99.90
15749;DHT22;7976;52.526;13.326;2023-04-19T11:50:29;13.20;99.90
15749;DHT22;7976;52.526;13.326;2023-04-19T11:52:57;13.40;99.90
15749;DHT22;7976;52.526;13.326;2023-04-19T11:55:24;13.40;99.90
15749;DHT22;7976;52.526;13.326;2023-04-19T11:57:51;13.20;99.90
15749;DHT22;7976;52.526;13.326;2023-04-19T12:00:26;13.00;99.90
15749;DHT22;7976;52.526;13.326;2023-04-19T12:02:54;13.10;99.90
15749;DHT22;7976;52.526;13.326;2023-04-19T12:05:22;13.00;99.90
15749;DHT22;7976;52.526;13.326;2023-04-19T12:08:03;12.90;99.90
15749;DHT22;7976;52.526;13.326;2023-04-19T12:10:33;13.00;99.90
15749;DHT22;7976;52.526;13.326;2023-04-19T12:13:15;13.00;99.90
15749;DHT22;7976;52.526;13.326;2023-04-19T12:15:45;13.00;99.90
15749;DHT22;7976;52.526;13.326;2023-04-19T12:18:13;13.10;99.90
15749;DHT22;7976;52.526;13.326;2023-04-19T12:20:43;13.10;99.90
15749;DHT22;7976;52.526;13.326;2023-04-19T12:23:11;13.00;99.90
15749;DHT22;7976;52.526;13.326;2023-04-19T12:25:40;13.10;99.90
15749;DHT22;7976;52.526;13.326;2023-04-19T12:28:08;13.20;99.90
15749;DHT22;7976;52.526;13.326;2023-04-19T12:30:35;13.20;99.90
15749;DHT22;7976;52.526;13.326;2023-04-19T12:33:04;13.20;99.90
15749;DHT22;7976;52.526;13.326;2023-04-19T12:35:32;13.30;99.90
15749;DHT22;7976;52.526;13.326;2023-04-19T12:37:59;13.30;99.90
15749;DHT22;7976;52.526;13.326;2023-04-19T12:40:28;13.30;99.90
15749;DHT22;7976;52.526;13.326;2023-04-19T12:42:55;13.30;99.90
15749;DHT22;7976;52.526;13.326;2023-04-19T12:45:22;13.30;99.90
15749;DHT22;7976;52.526;13.326;2023-04-19T12:47:49;13.40;99.90
15749;DHT22;7976;52.526;13.326;2023-04-19T12:50:17;13.40;99.90
15749;DHT22;7976;52.526;13.326;2023-04-19T12:52:44;13.30;99.90
15749;DHT22;7976;52.526;13.326;2023-04-19T12:55:11;13.10;99.90
15749;DHT22;7976;52.526;13.326;2023-04-19T12:57:38;13.00;99.90
15749;DHT22;7976;52.526;13.326;2023-04-19T13:00:07;12.90;99.90
15749;DHT22;7976;52.526;13.326;2023-04-19T13:02:35;12.90;99.90
15749;DHT22;7976;52.526;13.326;2023-04-19T13:05:02;13.00;99.90
15749;DHT22;7976;52.526;13.326;2023-04-19T13:07:32;13.00;99.90
15749;DHT22;7976;52.526;13.326;2023-04-19T13:09:59;13.10;99.90
15749;DHT22;7976;52.526;13.326;2023-04-19T13:12:26;13.30;99.90
15749;DHT22;7976;52.526;13.326;2023-04-19T13:14:53;13.40;99.90
15749;DHT22;7976;52.526;13.326;2023-04-19T13:17:20;13.50;99.90
15749;DHT22;7976;52.526;13.326;2023-04-19T13:19:47;13.70;99.90
15749;DHT22;7976;52.526;13.326;2023-04-19T13:22:14;13.80;98.70
15749;DHT22;7976;52.526;13.326;2023-04-19T13:24:42;13.90;98.40
15749;DHT22;7976;52.526;13.326;2023-04-19T13:27:09;14.00;98.50
15749;DHT22;7976;52.526;13.326;2023-04-19T13:29:36;14.00;98.20
15749;DHT22;7976;52.526;13.326;2023-04-19T13:32:03;14.10;97.30
15749;DHT22;7976;52.526;13.326;2023-04-19T13:34:32;14.10;97.20
15749;DHT22;7976;52.526;13.326;2023-04-19T13:36:58;14.30;96.70
15749;DHT22;7976;52.526;13.326;2023-04-19T13:39:25;14.20;96.30
15749;DHT22;7976;52.526;13.326;2023-04-19T13:41:53;14.10;96.30
15749;DHT22;7976;52.526;13.326;2023-04-19T13:44:20;14.10;96.80
15749;DHT22;7976;52.526;13.326;2023-04-19T13:46:47;14.10;96.50
15749;DHT22;7976;52.526;13.326;2023-04-19T13:49:14;14.10;96.60
15749;DHT22;7976;52.526;13.326;2023-04-19T13:51:41;14.00;96.80
15749;DHT22;7976;52.526;13.326;2023-04-19T13:54:07;13.90;96.80
15749;DHT22;7976;52.526;13.326;2023-04-19T13:56:34;13.80;96.60
15749;DHT22;7976;52.526;13.326;2023-04-19T13:59:02;13.70;97.00
15749;DHT22;7976;52.526;13.326;2023-04-19T14:01:29;13.50;97.40
15749;DHT22;7976;52.526;13.326;2023-04-19T14:03:56;13.30;97.40
15749;DHT22;7976;52.526;13.326;2023-04-19T14:06:23;13.10;97.50
15749;DHT22;7976;52.526;13.326;2023-04-19T14:08:49;13.00;98.10
15749;DHT22;7976;52.526;13.326;2023-04-19T14:11:16;12.90;98.50
15749;DHT22;7976;52.526;13.326;2023-04-19T14:13:43;12.80;98.90
15749;DHT22;7976;52.526;13.326;2023-04-19T14:16:11;12.70;99.10
15749;DHT22;7976;52.526;13.326;2023-04-19T14:18:38;12.70;99.20
15749;DHT22;7976;52.526;13.326;2023-04-19T14:21:05;12.70;99.30
15749;DHT22;7976;52.526;13.326;2023-04-19T14:23:32;12.70;99.10
15749;DHT22;7976;52.526;13.326;2023-04-19T14:25:59;12.70;99.00
15749;DHT22;7976;52.526;13.326;2023-04-19T14:28:26;12.80;99.10
15749;DHT22;7976;52.526;13.326;2023-04-19T14:30:53;12.80;99.10
15749;DHT22;7976;52.526;13.326;2023-04-19T14:33:22;12.90;99.20
15749;DHT22;7976;52.526;13.326;2023-04-19T14:35:49;13.00;99.20
15749;DHT22;7976;52.526;13.326;2023-04-19T14:38:16;13.00;99.20
15749;DHT22;7976;52.526;13.326;2023-04-19T14:40:43;12.80;99.30
15749;DHT22;7976;52.526;13.326;2023-04-19T14:43:14;12.60;99.60
15749;DHT22;7976;52.526;13.326;2023-04-19T14:45:41;12.40;99.60
15749;DHT22;7976;52.526;13.326;2023-04-19T14:48:08;12.30;99.50
15749;DHT22;7976;52.526;13.326;2023-04-19T14:50:36;12.10;99.80
15749;DHT22;7976;52.526;13.326;2023-04-19T14:53:03;12.10;99.90
15749;DHT22;7976;52.526;13.326;2023-04-19T14:55:30;11.90;99.90
15749;DHT22;7976;52.526;13.326;2023-04-19T14:57:57;11.90;99.90
15749;DHT22;7976;52.526;13.326;2023-04-19T15:00:24;11.80;99.90
15749;DHT22;7976;52.526;13.326;2023-04-19T15:02:52;11.70;99.90
15749;DHT22;7976;52.526;13.326;2023-04-19T15:05:20;11.50;99.90
15749;DHT22;7976;52.526;13.326;2023-04-19T15:07:49;11.10;99.90
15749;DHT22;7976;52.526;13.326;2023-04-19T15:10:16;10.60;99.90
15749;DHT22;7976;52.526;13.326;2023-04-19T15:12:43;10.10;99.90
15749;DHT22;7976;52.526;13.326;2023-04-19T15:15:10;9.70;99.90
15749;DHT22;7976;52.526;13.326;2023-04-19T15:17:37;9.30;99.90
15749;DHT22;7976;52.526;13.326;2023-04-19T15:20:06;8.90;99.90
15749;DHT22;7976;52.526;13.326;2023-04-19T15:22:34;8.50;99.90
15749;DHT22;7976;52.526;13.326;2023-04-19T15:25:02;8.30;99.90
15749;DHT22;7976;52.526;13.326;2023-04-19T15:27:29;8.10;99.90
15749;DHT22;7976;52.526;13.326;2023-04-19T15:29:56;7.90;99.90
15749;DHT22;7976;52.526;13.326;2023-04-19T15:32:23;7.60;99.90
15749;DHT22;7976;52.526;13.326;2023-04-19T15:34:50;7.40;99.90
15749;DHT22;7976;52.526;13.326;2023-04-19T15:37:17;7.20;99.90
15749;DHT22;7976;52.526;13.326;2023-04-19T15:39:44;7.00;99.90
15749;DHT22;7976;52.526;13.326;2023-04-19T15:42:16;6.90;99.90
15749;DHT22;7976;52.526;13.326;2023-04-19T15:44:43;6.70;99.90
15749;DHT22;7976;52.526;13.326;2023-04-19T15:47:09;6.70;99.90